createdAt,value
2017-09-13T00:00:02.551Z,1000.2
2017-09-13T00:01:03.953Z,1000.2
2017-09-13T00:02:25.441Z,1000.2
2017-09-13T00:03:26.842Z,1000.2
2017-09-13T00:04:48.350Z,1000.1
2017-09-13T00:05:49.757Z,1000.0
2017-09-13T00:07:11.250Z,1000.1
2017-09-13T00:08:12.648Z,1000.2
2017-09-13T00:09:34.139Z,1000.2
2017-09-13T00:10:35.540Z,1000.1
2017-09-13T00:11:57.052Z,1000.0
2017-09-13T00:12:58.457Z,1000.0
2017-09-13T00:14:19.940Z,1000.0
2017-09-13T00:15:21.340Z,1000.1
2017-09-13T00:16:42.850Z,1000.0
2017-09-13T00:17:44.253Z,1000.0
2017-09-13T00:19:05.742Z,999.9
2017-09-13T00:20:07.142Z,999.9
2017-09-13T00:21:28.649Z,999.9
2017-09-13T00:22:30.049Z,999.8
2017-09-13T00:23:51.538Z,999.7
2017-09-13T00:24:52.937Z,999.7
2017-09-13T00:26:14.448Z,999.6
2017-09-13T00:27:15.863Z,999.6
2017-09-13T00:28:37.352Z,999.6
2017-09-13T00:29:38.751Z,999.6
2017-09-13T00:31:00.259Z,999.6
2017-09-13T00:32:01.659Z,999.6
2017-09-13T00:33:23.147Z,999.6
2017-09-13T00:34:24.549Z,999.6
2017-09-13T00:35:46.059Z,999.5
2017-09-13T00:36:47.460Z,999.5
2017-09-13T00:38:08.952Z,999.4
2017-09-13T00:39:10.351Z,999.4
2017-09-13T00:40:31.864Z,999.3
2017-09-13T00:41:33.267Z,999.4
2017-09-13T00:42:54.757Z,999.4
2017-09-13T00:43:56.158Z,999.3
2017-09-13T00:45:18.665Z,999.2
2017-09-13T00:46:20.062Z,999.1
2017-09-13T00:47:41.551Z,999.1
2017-09-13T00:48:42.952Z,999.1
2017-09-13T00:50:04.463Z,999.0
2017-09-13T00:51:05.866Z,999.0
2017-09-13T00:52:27.359Z,998.9
2017-09-13T00:53:28.757Z,998.9
2017-09-13T00:54:50.248Z,998.8
2017-09-13T00:55:51.647Z,998.8
2017-09-13T00:57:13.161Z,998.8
2017-09-13T00:58:14.560Z,998.8
2017-09-13T00:59:36.046Z,998.8
2017-09-13T01:00:37.445Z,998.7
2017-09-13T01:01:58.951Z,998.7
2017-09-13T01:03:00.359Z,998.6
2017-09-13T01:04:21.843Z,998.6
2017-09-13T01:05:23.243Z,998.6
2017-09-13T01:06:44.948Z,998.6
2017-09-13T01:07:46.348Z,998.5
2017-09-13T01:09:07.842Z,998.5
2017-09-13T01:10:09.239Z,998.5
2017-09-13T01:11:30.748Z,998.4
2017-09-13T01:12:32.153Z,998.4
2017-09-13T01:13:53.643Z,998.4
2017-09-13T01:14:55.046Z,998.4
2017-09-13T01:16:16.556Z,998.3
2017-09-13T01:17:17.958Z,998.3
2017-09-13T01:18:39.444Z,998.3
2017-09-13T01:19:40.844Z,998.2
2017-09-13T01:21:02.356Z,998.2
2017-09-13T01:22:03.758Z,998.2
2017-09-13T01:23:25.243Z,998.1
2017-09-13T01:24:26.644Z,998.0
2017-09-13T01:25:48.151Z,998.0
2017-09-13T01:26:49.557Z,997.9
2017-09-13T01:28:11.045Z,997.9
2017-09-13T01:29:12.444Z,997.8
2017-09-13T01:30:33.951Z,997.8
2017-09-13T01:31:35.351Z,997.8
2017-09-13T01:32:56.838Z,997.7
2017-09-13T01:33:58.239Z,997.7
2017-09-13T01:35:19.768Z,997.7
2017-09-13T01:36:21.171Z,997.6
2017-09-13T01:37:42.658Z,997.7
2017-09-13T01:38:44.059Z,997.7
2017-09-13T01:40:05.548Z,997.7
2017-09-13T01:41:06.949Z,997.7
2017-09-13T01:42:28.460Z,997.8
2017-09-13T01:43:29.861Z,997.7
2017-09-13T01:44:51.346Z,997.8
2017-09-13T01:45:52.748Z,997.7
2017-09-13T01:47:14.256Z,997.6
2017-09-13T01:48:15.657Z,997.6
2017-09-13T01:49:37.143Z,997.7
2017-09-13T01:50:38.546Z,997.7
2017-09-13T01:52:00.053Z,997.7
2017-09-13T01:53:01.454Z,997.6
2017-09-13T01:54:22.943Z,997.6
2017-09-13T01:55:24.344Z,997.6
2017-09-13T01:56:45.855Z,997.6
2017-09-13T01:57:47.258Z,997.6
2017-09-13T01:59:08.745Z,997.6
2017-09-13T02:00:10.147Z,997.6
2017-09-13T02:01:31.656Z,997.5
2017-09-13T02:02:33.059Z,997.5
2017-09-13T02:03:54.542Z,997.5
2017-09-13T02:04:55.947Z,997.4
2017-09-13T02:06:17.455Z,997.3
2017-09-13T02:07:18.855Z,997.3
2017-09-13T02:08:40.349Z,997.3
2017-09-13T02:09:41.749Z,997.2
2017-09-13T02:11:04.253Z,997.1
2017-09-13T02:12:05.653Z,997.1
2017-09-13T02:13:27.145Z,997.0
2017-09-13T02:14:28.544Z,996.9
2017-09-13T02:15:50.058Z,996.8
2017-09-13T02:16:51.458Z,996.8
2017-09-13T02:18:12.943Z,996.7
2017-09-13T02:19:14.343Z,996.7
2017-09-13T02:20:35.837Z,996.7
2017-09-13T02:21:37.234Z,996.7
2017-09-13T02:22:58.741Z,996.6
2017-09-13T02:24:00.144Z,996.6
2017-09-13T02:25:21.632Z,996.5
2017-09-13T02:26:23.038Z,996.5
2017-09-13T02:27:44.545Z,996.5
2017-09-13T02:28:45.945Z,996.3
2017-09-13T02:30:07.439Z,996.3
2017-09-13T02:31:08.838Z,996.2
2017-09-13T02:32:30.348Z,996.3
2017-09-13T02:33:31.750Z,996.3
2017-09-13T02:34:53.236Z,996.3
2017-09-13T02:35:54.636Z,996.2
2017-09-13T02:37:16.146Z,996.1
2017-09-13T02:38:17.547Z,996.1
2017-09-13T02:39:39.041Z,996.0
2017-09-13T02:40:40.431Z,996.0
2017-09-13T02:42:01.952Z,996.0
2017-09-13T02:43:03.354Z,996.0
2017-09-13T02:44:24.851Z,995.9
2017-09-13T02:45:26.249Z,995.9
2017-09-13T02:46:47.756Z,995.9
2017-09-13T02:47:49.158Z,995.8
2017-09-13T02:49:10.647Z,995.8
2017-09-13T02:50:12.057Z,995.7
2017-09-13T02:51:33.560Z,995.6
2017-09-13T02:52:34.962Z,995.6
2017-09-13T02:53:56.450Z,995.6
2017-09-13T02:54:57.848Z,995.5
2017-09-13T02:56:19.357Z,995.5
2017-09-13T02:57:20.757Z,995.4
2017-09-13T02:58:42.244Z,995.3
2017-09-13T02:59:43.648Z,995.3
2017-09-13T03:01:05.160Z,995.1
2017-09-13T03:02:06.562Z,995.1
2017-09-13T03:03:28.044Z,995.0
2017-09-13T03:04:29.446Z,994.9
2017-09-13T03:05:50.938Z,994.9
2017-09-13T03:06:52.341Z,994.8
2017-09-13T03:08:13.851Z,994.8
2017-09-13T03:09:15.262Z,994.8
2017-09-13T03:10:36.739Z,994.8
2017-09-13T03:11:38.141Z,994.9
2017-09-13T03:12:59.651Z,994.9
2017-09-13T03:14:01.049Z,994.9
2017-09-13T03:15:22.537Z,994.9
2017-09-13T03:16:23.937Z,994.8
2017-09-13T03:17:45.453Z,994.7
2017-09-13T03:18:46.855Z,994.7
2017-09-13T03:20:08.345Z,994.7
2017-09-13T03:21:09.752Z,994.6
2017-09-13T03:22:31.262Z,994.6
2017-09-13T03:23:32.665Z,994.5
2017-09-13T03:24:54.150Z,994.4
2017-09-13T03:25:55.549Z,994.3
2017-09-13T03:27:17.057Z,994.3
2017-09-13T03:28:18.458Z,994.2
2017-09-13T03:29:39.947Z,994.2
2017-09-13T03:30:41.350Z,994.2
2017-09-13T03:32:02.885Z,994.2
2017-09-13T03:33:04.259Z,994.2
2017-09-13T03:34:25.743Z,994.2
2017-09-13T03:35:27.143Z,994.0
2017-09-13T03:36:48.651Z,994.0
2017-09-13T03:37:50.056Z,993.9
2017-09-13T03:39:11.539Z,994.0
2017-09-13T03:40:12.943Z,993.9
2017-09-13T03:41:34.454Z,993.9
2017-09-13T03:42:35.854Z,993.8
2017-09-13T03:43:57.348Z,993.8
2017-09-13T03:44:58.748Z,993.7
2017-09-13T03:46:20.241Z,993.7
2017-09-13T03:47:21.641Z,993.7
2017-09-13T03:48:43.149Z,993.7
2017-09-13T03:49:44.550Z,993.6
2017-09-13T03:51:06.038Z,993.5
2017-09-13T03:52:07.439Z,993.5
2017-09-13T03:53:28.947Z,993.4
2017-09-13T03:54:30.347Z,993.5
2017-09-13T03:55:51.835Z,993.4
2017-09-13T03:56:53.236Z,993.3
2017-09-13T03:58:14.743Z,993.3
2017-09-13T03:59:16.155Z,993.2
2017-09-13T04:00:37.648Z,993.2
2017-09-13T04:01:39.047Z,993.1
2017-09-13T04:03:00.744Z,993.1
2017-09-13T04:04:02.143Z,993.0
2017-09-13T04:05:23.630Z,993.0
2017-09-13T04:06:25.028Z,993.0
2017-09-13T04:07:46.539Z,993.0
2017-09-13T04:08:47.940Z,992.9
2017-09-13T04:10:09.426Z,992.8
2017-09-13T04:11:10.834Z,992.8
2017-09-13T04:12:32.343Z,992.8
2017-09-13T04:13:33.944Z,992.8
2017-09-13T04:14:55.825Z,992.7
2017-09-13T04:15:57.177Z,992.7
2017-09-13T04:17:18.718Z,992.7
2017-09-13T04:18:20.138Z,992.7
2017-09-13T04:19:41.626Z,992.6
2017-09-13T04:20:43.026Z,992.6
2017-09-13T04:22:04.573Z,992.5
2017-09-13T04:23:05.973Z,992.6
2017-09-13T04:24:27.463Z,992.5
2017-09-13T04:25:28.863Z,992.5
2017-09-13T04:26:50.372Z,992.4
2017-09-13T04:27:51.776Z,992.4
2017-09-13T04:29:13.268Z,992.4
2017-09-13T04:30:14.666Z,992.4
2017-09-13T04:31:36.157Z,992.4
2017-09-13T04:32:37.558Z,992.3
2017-09-13T04:33:59.074Z,992.3
2017-09-13T04:35:00.887Z,992.3
2017-09-13T04:36:22.384Z,992.1
2017-09-13T04:37:23.781Z,992.1
2017-09-13T04:38:45.293Z,992.2
2017-09-13T04:39:46.728Z,992.1
2017-09-13T04:41:08.217Z,992.1
2017-09-13T04:42:09.617Z,992.1
2017-09-13T04:43:31.125Z,992.0
2017-09-13T04:44:32.526Z,991.9
2017-09-13T04:45:54.017Z,991.8
2017-09-13T04:46:55.415Z,991.9
2017-09-13T04:48:16.924Z,991.9
2017-09-13T04:49:18.330Z,992.0
2017-09-13T04:50:39.819Z,991.9
2017-09-13T04:51:41.220Z,991.9
2017-09-13T04:53:02.728Z,991.8
2017-09-13T04:54:04.128Z,991.8
2017-09-13T04:55:25.806Z,991.8
2017-09-13T04:56:27.758Z,991.7
2017-09-13T04:57:49.244Z,991.7
2017-09-13T04:58:50.648Z,991.6
2017-09-13T05:00:12.137Z,991.7
2017-09-13T05:01:13.545Z,991.5
2017-09-13T05:02:35.052Z,991.5
2017-09-13T05:03:36.455Z,991.5
2017-09-13T05:04:57.943Z,991.5
2017-09-13T05:05:59.348Z,991.5
2017-09-13T05:07:20.872Z,991.5
2017-09-13T05:08:22.280Z,991.4
2017-09-13T05:09:43.773Z,991.4
2017-09-13T05:10:45.174Z,991.5
2017-09-13T05:12:06.689Z,991.4
2017-09-13T05:13:08.142Z,991.4
2017-09-13T05:14:29.634Z,991.4
2017-09-13T05:15:31.035Z,991.3
2017-09-13T05:16:52.531Z,991.4
2017-09-13T05:17:53.951Z,991.3
2017-09-13T05:19:15.452Z,991.3
2017-09-13T05:20:16.860Z,991.3
2017-09-13T05:21:38.349Z,991.4
2017-09-13T05:22:39.786Z,991.3
2017-09-13T05:24:01.266Z,991.2
2017-09-13T05:25:02.670Z,991.3
2017-09-13T05:26:24.166Z,991.3
2017-09-13T05:27:25.572Z,991.3
2017-09-13T05:28:47.085Z,991.2
2017-09-13T05:29:48.491Z,991.2
2017-09-13T05:31:09.988Z,991.2
2017-09-13T05:32:11.391Z,991.2
2017-09-13T05:33:32.900Z,991.2
2017-09-13T05:34:34.305Z,991.1
2017-09-13T05:35:55.792Z,991.1
2017-09-13T05:36:57.197Z,991.1
2017-09-13T05:38:18.706Z,991.1
2017-09-13T05:39:20.116Z,991.0
2017-09-13T05:40:41.603Z,991.1
2017-09-13T05:41:43.006Z,991.0
2017-09-13T05:43:04.522Z,991.1
2017-09-13T05:44:05.925Z,991.0
2017-09-13T05:45:27.417Z,991.0
2017-09-13T05:46:28.820Z,990.9
2017-09-13T05:47:50.340Z,991.0
2017-09-13T05:48:51.741Z,990.8
2017-09-13T05:50:13.231Z,990.9
2017-09-13T05:51:14.637Z,990.9
2017-09-13T05:52:36.156Z,990.9
2017-09-13T05:53:37.568Z,990.9
2017-09-13T05:54:59.052Z,990.8
2017-09-13T05:56:00.452Z,990.8
2017-09-13T05:57:21.966Z,990.8
2017-09-13T05:58:23.372Z,990.7
2017-09-13T05:59:44.868Z,990.7
2017-09-13T06:00:46.270Z,990.7
2017-09-13T06:02:07.761Z,990.7
2017-09-13T06:03:09.163Z,990.6
2017-09-13T06:04:30.678Z,990.7
2017-09-13T06:05:32.081Z,990.7
2017-09-13T06:06:53.574Z,990.6
2017-09-13T06:07:54.986Z,990.7
2017-09-13T06:09:16.509Z,990.7
2017-09-13T06:10:17.922Z,990.6
2017-09-13T06:11:39.413Z,990.5
2017-09-13T06:12:40.819Z,990.5
2017-09-13T06:14:02.337Z,990.5
2017-09-13T06:15:03.738Z,990.5
2017-09-13T06:16:25.233Z,990.4
2017-09-13T06:17:26.635Z,990.5
2017-09-13T06:18:48.148Z,990.4
2017-09-13T06:19:49.554Z,990.4
2017-09-13T06:21:11.045Z,990.4
2017-09-13T06:22:12.450Z,990.4
2017-09-13T06:23:33.971Z,990.3
2017-09-13T06:24:35.376Z,990.3
2017-09-13T06:25:56.866Z,990.4
2017-09-13T06:26:58.271Z,990.4
2017-09-13T06:28:19.784Z,990.3
2017-09-13T06:29:21.188Z,990.2
2017-09-13T06:30:42.680Z,990.2
2017-09-13T06:31:44.081Z,990.2
2017-09-13T06:33:05.599Z,990.3
2017-09-13T06:34:07.006Z,990.3
2017-09-13T06:35:28.500Z,990.2
2017-09-13T06:36:29.905Z,990.2
2017-09-13T06:37:51.415Z,990.2
2017-09-13T06:38:52.827Z,990.3
2017-09-13T06:40:14.320Z,990.2
2017-09-13T06:41:15.733Z,990.2
2017-09-13T06:42:37.246Z,990.1
2017-09-13T06:43:38.657Z,990.1
2017-09-13T06:45:00.164Z,990.0
2017-09-13T06:46:01.570Z,990.0
2017-09-13T06:47:23.064Z,990.1
2017-09-13T06:48:24.473Z,990.0
2017-09-13T06:49:45.984Z,990.1
2017-09-13T06:50:47.391Z,990.0
2017-09-13T06:52:08.881Z,989.9
2017-09-13T06:53:10.286Z,989.9
2017-09-13T06:54:31.801Z,989.9
2017-09-13T06:55:33.206Z,990.0
2017-09-13T06:56:54.698Z,989.9
2017-09-13T06:57:56.107Z,989.9
2017-09-13T06:59:17.619Z,989.9
2017-09-13T07:00:19.030Z,990.0
2017-09-13T07:01:40.525Z,990.0
2017-09-13T07:02:41.932Z,990.1
2017-09-13T07:04:03.448Z,990.0
2017-09-13T07:05:04.857Z,990.0
2017-09-13T07:06:26.355Z,989.9
2017-09-13T07:07:27.763Z,990.0
2017-09-13T07:08:49.286Z,989.9
2017-09-13T07:09:50.692Z,989.9
2017-09-13T07:11:12.188Z,989.9
2017-09-13T07:12:13.593Z,989.7
2017-09-13T07:13:35.109Z,989.9
2017-09-13T07:14:36.518Z,989.9
2017-09-13T07:15:58.019Z,990.1
2017-09-13T07:16:59.422Z,989.9
2017-09-13T07:18:20.937Z,990.0
2017-09-13T07:19:22.349Z,989.9
2017-09-13T07:20:43.849Z,989.9
2017-09-13T07:21:45.255Z,989.9
2017-09-13T07:23:06.771Z,989.8
2017-09-13T07:24:08.178Z,989.8
2017-09-13T07:25:29.677Z,989.8
2017-09-13T07:26:31.100Z,989.8
2017-09-13T07:27:52.580Z,989.7
2017-09-13T07:28:53.987Z,989.6
2017-09-13T07:30:15.504Z,989.7
2017-09-13T07:31:16.908Z,989.7
2017-09-13T07:32:38.401Z,989.6
2017-09-13T07:33:39.807Z,989.6
2017-09-13T07:35:01.323Z,989.6
2017-09-13T07:36:02.733Z,989.7
2017-09-13T07:37:24.231Z,989.6
2017-09-13T07:38:25.636Z,989.6
2017-09-13T07:39:47.155Z,989.4
2017-09-13T07:40:48.565Z,989.5
2017-09-13T07:42:10.058Z,989.6
2017-09-13T07:43:11.464Z,989.5
2017-09-13T07:44:32.980Z,989.5
2017-09-13T07:45:34.391Z,989.4
2017-09-13T07:46:55.882Z,989.4
2017-09-13T07:47:57.299Z,989.5
2017-09-13T07:49:18.808Z,989.6
2017-09-13T07:50:20.221Z,989.5
2017-09-13T07:51:41.714Z,989.5
2017-09-13T07:52:43.122Z,989.5
2017-09-13T07:54:04.636Z,989.6
2017-09-13T07:55:06.046Z,989.6
2017-09-13T07:56:27.543Z,989.7
2017-09-13T07:57:28.952Z,989.7
2017-09-13T07:58:50.474Z,989.7
2017-09-13T07:59:51.883Z,989.7
2017-09-13T08:01:13.382Z,989.6
2017-09-13T08:02:14.791Z,989.5
2017-09-13T08:03:36.309Z,989.7
2017-09-13T08:04:37.720Z,989.5
2017-09-13T08:05:59.214Z,989.5
2017-09-13T08:07:00.622Z,989.5
2017-09-13T08:08:22.143Z,989.6
2017-09-13T08:09:23.551Z,989.7
2017-09-13T08:10:45.049Z,989.6
2017-09-13T08:11:46.457Z,989.5
2017-09-13T08:13:07.956Z,989.5
2017-09-13T08:14:09.366Z,989.4
2017-09-13T08:15:30.884Z,989.5
2017-09-13T08:16:32.291Z,989.5
2017-09-13T08:17:53.791Z,989.5
2017-09-13T08:18:55.199Z,989.6
2017-09-13T08:20:16.721Z,989.4
2017-09-13T08:21:18.130Z,989.5
2017-09-13T08:22:39.628Z,989.5
2017-09-13T08:23:41.036Z,989.5
2017-09-13T08:25:02.552Z,989.6
2017-09-13T08:26:03.960Z,989.5
2017-09-13T08:27:25.461Z,989.5
2017-09-13T08:28:26.872Z,989.6
2017-09-13T08:29:48.382Z,989.6
2017-09-13T08:30:49.792Z,989.4
2017-09-13T08:32:11.289Z,989.4
2017-09-13T08:33:12.699Z,989.6
2017-09-13T08:34:34.213Z,989.5
2017-09-13T08:35:35.626Z,989.6
2017-09-13T08:36:57.160Z,989.6
2017-09-13T08:37:58.528Z,989.5
2017-09-13T08:39:20.051Z,989.6
2017-09-13T08:40:21.459Z,989.4
2017-09-13T08:41:42.959Z,989.6
2017-09-13T08:42:44.365Z,989.7
2017-09-13T08:44:05.893Z,989.5
2017-09-13T08:45:07.297Z,989.6
2017-09-13T08:46:28.795Z,989.4
2017-09-13T08:47:30.202Z,989.6
2017-09-13T08:48:51.722Z,989.5
2017-09-13T08:49:53.132Z,989.6
2017-09-13T08:51:14.628Z,989.5
2017-09-13T08:52:16.035Z,989.4
2017-09-13T08:53:37.552Z,989.6
2017-09-13T08:54:38.961Z,989.5
2017-09-13T08:56:00.462Z,989.5
2017-09-13T08:57:01.873Z,989.6
2017-09-13T08:58:23.415Z,989.5
2017-09-13T08:59:24.825Z,989.4
2017-09-13T09:00:46.341Z,989.6
2017-09-13T09:01:47.752Z,989.6
2017-09-13T09:03:09.250Z,989.6
2017-09-13T09:04:10.659Z,989.5
2017-09-13T09:05:32.178Z,989.5
2017-09-13T09:06:33.589Z,989.6
2017-09-13T09:07:55.091Z,989.6
2017-09-13T09:08:56.501Z,989.5
2017-09-13T09:10:18.019Z,989.6
2017-09-13T09:11:19.431Z,989.6
2017-09-13T09:12:40.930Z,989.6
2017-09-13T09:13:42.341Z,989.7
2017-09-13T09:15:03.869Z,989.6
2017-09-13T09:16:05.277Z,989.8
2017-09-13T09:17:26.776Z,989.4
2017-09-13T09:18:28.185Z,989.6
2017-09-13T09:19:49.707Z,989.6
2017-09-13T09:20:51.120Z,989.4
2017-09-13T09:22:12.620Z,989.5
2017-09-13T09:23:14.029Z,989.6
2017-09-13T09:24:35.550Z,989.5
2017-09-13T09:25:36.960Z,989.5
2017-09-13T09:26:58.462Z,989.7
2017-09-13T09:27:59.872Z,989.6
2017-09-13T09:29:21.415Z,989.6
2017-09-13T09:30:22.830Z,989.6
2017-09-13T09:31:44.329Z,989.7
2017-09-13T09:32:45.739Z,989.7
2017-09-13T09:34:07.259Z,989.7
2017-09-13T09:35:08.669Z,989.9
2017-09-13T09:36:30.170Z,989.8
2017-09-13T09:37:31.581Z,989.7
2017-09-13T09:38:53.121Z,989.8
2017-09-13T09:39:54.532Z,989.9
2017-09-13T09:41:16.039Z,989.8
2017-09-13T09:42:17.446Z,989.9
2017-09-13T09:43:38.945Z,989.7
2017-09-13T09:44:40.355Z,989.8
2017-09-13T09:46:01.891Z,989.9
2017-09-13T09:47:03.295Z,989.8
2017-09-13T09:48:24.793Z,989.9
2017-09-13T09:49:26.203Z,989.9
2017-09-13T09:50:47.726Z,989.8
2017-09-13T09:51:49.145Z,990.0
2017-09-13T09:53:10.645Z,990.1
2017-09-13T09:54:12.055Z,990.1
2017-09-13T09:55:33.574Z,990.2
2017-09-13T09:56:34.987Z,990.0
2017-09-13T09:57:56.495Z,990.3
2017-09-13T09:58:57.911Z,990.3
2017-09-13T10:00:19.430Z,990.2
2017-09-13T10:01:20.842Z,990.4
2017-09-13T10:02:42.343Z,990.3
2017-09-13T10:03:43.753Z,990.3
2017-09-13T10:05:05.274Z,990.4
2017-09-13T10:06:06.687Z,990.2
2017-09-13T10:07:28.192Z,990.4
2017-09-13T10:08:29.615Z,990.4
2017-09-13T10:09:51.131Z,990.3
2017-09-13T10:10:52.542Z,990.3
2017-09-13T10:12:14.536Z,990.2
2017-09-13T10:13:15.952Z,990.3
2017-09-13T10:14:37.473Z,990.4
2017-09-13T10:15:38.905Z,990.3
2017-09-13T10:17:00.388Z,990.2
2017-09-13T10:18:01.799Z,990.2
2017-09-13T10:19:23.322Z,990.1
2017-09-13T10:20:24.735Z,990.5
2017-09-13T10:21:46.241Z,990.1
2017-09-13T10:22:47.651Z,990.5
2017-09-13T10:24:09.156Z,990.5
2017-09-13T10:25:10.567Z,990.2
2017-09-13T10:26:32.091Z,990.4
2017-09-13T10:27:33.503Z,990.4
2017-09-13T10:28:55.008Z,990.4
2017-09-13T10:29:56.420Z,990.6
2017-09-13T10:31:17.940Z,990.5
2017-09-13T10:32:19.352Z,990.3
2017-09-13T10:33:40.855Z,990.4
2017-09-13T10:34:42.261Z,990.5
2017-09-13T10:36:03.788Z,990.5
2017-09-13T10:37:05.203Z,990.4
2017-09-13T10:38:26.702Z,990.5
2017-09-13T10:39:28.113Z,990.5
2017-09-13T10:40:49.631Z,990.5
2017-09-13T10:41:51.043Z,990.4
2017-09-13T10:43:12.552Z,990.5
2017-09-13T10:44:13.957Z,990.5
2017-09-13T10:45:35.478Z,990.6
2017-09-13T10:46:36.891Z,990.6
2017-09-13T10:47:58.390Z,990.3
2017-09-13T10:48:59.799Z,990.3
2017-09-13T10:50:21.323Z,990.5
2017-09-13T10:51:22.735Z,990.6
2017-09-13T10:52:44.237Z,990.6
2017-09-13T10:53:45.647Z,990.7
2017-09-13T10:55:07.168Z,990.7
2017-09-13T10:56:08.580Z,990.7
2017-09-13T10:57:30.082Z,990.8
2017-09-13T10:58:31.493Z,990.7
2017-09-13T10:59:53.017Z,990.8
2017-09-13T11:00:54.434Z,990.6
2017-09-13T11:02:15.955Z,990.9
2017-09-13T11:03:17.369Z,990.8
2017-09-13T11:04:38.895Z,990.8
2017-09-13T11:05:40.305Z,990.7
2017-09-13T11:07:01.808Z,990.6
2017-09-13T11:08:03.217Z,991.0
2017-09-13T11:09:24.725Z,990.7
2017-09-13T11:10:26.136Z,990.9
2017-09-13T11:11:47.659Z,990.9
2017-09-13T11:12:49.072Z,990.9
2017-09-13T11:14:10.576Z,990.9
2017-09-13T11:15:11.986Z,991.0
2017-09-13T11:16:33.512Z,991.0
2017-09-13T11:17:34.923Z,991.0
2017-09-13T11:18:56.426Z,991.2
2017-09-13T11:19:57.837Z,991.2
2017-09-13T11:21:19.364Z,991.3
2017-09-13T11:22:20.777Z,991.3
2017-09-13T11:23:42.278Z,991.3
2017-09-13T11:24:43.688Z,991.3
2017-09-13T11:26:05.213Z,991.2
2017-09-13T11:27:06.625Z,991.1
2017-09-13T11:28:28.126Z,991.3
2017-09-13T11:29:29.537Z,991.4
2017-09-13T11:30:51.062Z,991.4
2017-09-13T11:31:52.473Z,991.3
2017-09-13T11:33:13.982Z,991.3
2017-09-13T11:34:15.391Z,991.4
2017-09-13T11:35:36.913Z,991.4
2017-09-13T11:36:38.328Z,991.5
2017-09-13T11:37:59.826Z,991.6
2017-09-13T11:39:01.236Z,991.6
2017-09-13T11:40:22.759Z,991.5
2017-09-13T11:41:24.172Z,991.5
2017-09-13T11:42:45.678Z,991.5
2017-09-13T11:43:47.089Z,991.5
2017-09-13T11:45:08.611Z,991.8
2017-09-13T11:46:10.022Z,991.4
2017-09-13T11:47:31.524Z,991.6
2017-09-13T11:48:32.934Z,991.8
2017-09-13T11:49:54.458Z,991.6
2017-09-13T11:50:55.869Z,991.8
2017-09-13T11:52:17.372Z,991.9
2017-09-13T11:53:18.784Z,991.3
2017-09-13T11:54:40.283Z,991.9
2017-09-13T11:55:41.692Z,991.8
2017-09-13T11:57:03.214Z,991.9
2017-09-13T11:58:04.625Z,991.7
2017-09-13T11:59:26.128Z,992.0
2017-09-13T12:00:27.539Z,992.1
2017-09-13T12:01:49.056Z,992.2
2017-09-13T12:02:50.472Z,992.2
2017-09-13T12:04:11.966Z,992.3
2017-09-13T12:05:13.375Z,992.0
2017-09-13T12:06:34.897Z,992.1
2017-09-13T12:07:36.313Z,991.9
2017-09-13T12:08:57.806Z,992.3
2017-09-13T12:09:59.217Z,992.1
2017-09-13T12:11:20.735Z,992.3
2017-09-13T12:12:22.145Z,992.2
2017-09-13T12:13:43.649Z,992.3
2017-09-13T12:14:45.059Z,992.4
2017-09-13T12:16:06.579Z,992.2
2017-09-13T12:17:07.990Z,992.2
2017-09-13T12:18:29.493Z,992.3
2017-09-13T12:19:30.903Z,992.5
2017-09-13T12:20:52.424Z,992.5
2017-09-13T12:21:53.837Z,992.3
2017-09-13T12:23:15.336Z,992.3
2017-09-13T12:24:16.744Z,992.3
2017-09-13T12:25:38.263Z,992.4
2017-09-13T12:26:39.674Z,992.5
2017-09-13T12:28:01.393Z,992.2
2017-09-13T12:29:02.826Z,992.5
2017-09-13T12:30:24.432Z,992.3
2017-09-13T12:31:25.858Z,992.2
2017-09-13T12:32:47.365Z,992.4
2017-09-13T12:33:48.773Z,992.3
2017-09-13T12:35:10.329Z,992.4
2017-09-13T12:36:11.751Z,992.4
2017-09-13T12:37:33.314Z,992.5
2017-09-13T12:38:34.732Z,992.4
2017-09-13T12:39:56.234Z,992.5
2017-09-13T12:40:57.721Z,992.5
2017-09-13T12:42:19.306Z,992.4
2017-09-13T12:43:20.714Z,992.7
2017-09-13T12:44:42.222Z,992.5
2017-09-13T12:45:43.718Z,992.4
2017-09-13T12:47:05.273Z,992.4
2017-09-13T12:48:06.689Z,992.7
2017-09-13T12:49:28.193Z,992.7
2017-09-13T12:50:29.603Z,992.8
2017-09-13T12:51:51.120Z,992.6
2017-09-13T12:52:52.533Z,992.6
2017-09-13T12:54:14.032Z,992.7
2017-09-13T12:55:15.442Z,992.8
2017-09-13T12:56:36.986Z,992.8
2017-09-13T12:57:38.395Z,992.6
2017-09-13T12:58:59.897Z,992.8
2017-09-13T13:00:01.305Z,992.8
2017-09-13T13:01:23.094Z,992.8
2017-09-13T13:02:24.612Z,992.6
2017-09-13T13:03:46.302Z,992.7
2017-09-13T13:04:47.719Z,992.8
2017-09-13T13:06:09.241Z,992.8
2017-09-13T13:07:10.652Z,992.9
2017-09-13T13:08:32.152Z,992.8
2017-09-13T13:09:33.643Z,992.8
2017-09-13T13:10:55.222Z,992.8
2017-09-13T13:11:56.715Z,992.8
2017-09-13T13:13:18.297Z,992.8
2017-09-13T13:14:19.708Z,992.8
2017-09-13T13:15:41.295Z,992.8
2017-09-13T13:16:42.704Z,992.9
2017-09-13T13:18:04.305Z,992.9
2017-09-13T13:19:05.717Z,992.8
2017-09-13T13:20:27.216Z,992.8
2017-09-13T13:21:28.677Z,992.7
2017-09-13T13:22:50.201Z,992.9
2017-09-13T13:23:51.619Z,992.8
2017-09-13T13:25:13.116Z,992.9
2017-09-13T13:26:14.531Z,992.7
2017-09-13T13:27:36.104Z,992.9
2017-09-13T13:28:37.543Z,992.7
2017-09-13T13:29:59.042Z,993.0
2017-09-13T13:31:00.481Z,993.0
2017-09-13T13:32:22.039Z,993.0
2017-09-13T13:33:23.461Z,993.0
2017-09-13T13:34:45.001Z,993.0
2017-09-13T13:35:46.428Z,992.9
2017-09-13T13:37:07.957Z,993.1
2017-09-13T13:38:09.368Z,992.6
2017-09-13T13:39:30.871Z,992.8
2017-09-13T13:40:32.280Z,993.0
2017-09-13T13:41:53.800Z,993.2
2017-09-13T13:42:55.211Z,993.2
2017-09-13T13:44:16.711Z,993.1
2017-09-13T13:45:18.131Z,993.0
2017-09-13T13:46:39.650Z,993.1
2017-09-13T13:47:41.056Z,993.0
2017-09-13T13:49:02.560Z,992.9
2017-09-13T13:50:03.967Z,993.1
2017-09-13T13:51:25.492Z,993.1
2017-09-13T13:52:26.902Z,993.1
2017-09-13T13:53:48.403Z,993.1
2017-09-13T13:54:49.813Z,993.0
2017-09-13T13:56:11.332Z,993.1
2017-09-13T13:57:12.741Z,993.0
2017-09-13T13:58:34.244Z,993.0
2017-09-13T13:59:35.653Z,993.1
2017-09-13T14:00:57.175Z,993.1
2017-09-13T14:01:58.585Z,993.2
2017-09-13T14:03:20.087Z,993.1
2017-09-13T14:04:21.495Z,993.0
2017-09-13T14:05:42.995Z,993.2
2017-09-13T14:06:44.406Z,993.1
2017-09-13T14:08:05.929Z,993.4
2017-09-13T14:09:07.338Z,993.1
2017-09-13T14:10:28.837Z,993.2
2017-09-13T14:11:30.247Z,993.4
2017-09-13T14:12:51.771Z,993.1
2017-09-13T14:13:53.188Z,993.3
2017-09-13T14:15:14.685Z,993.3
2017-09-13T14:16:16.092Z,993.4
2017-09-13T14:17:37.620Z,993.3
2017-09-13T14:18:39.031Z,993.3
2017-09-13T14:20:00.534Z,993.2
2017-09-13T14:21:01.942Z,993.3
2017-09-13T14:22:23.463Z,993.4
2017-09-13T14:23:24.876Z,993.3
2017-09-13T14:24:46.377Z,993.4
2017-09-13T14:25:47.786Z,993.3
2017-09-13T14:27:09.309Z,993.4
2017-09-13T14:28:10.721Z,993.2
2017-09-13T14:29:32.237Z,993.4
2017-09-13T14:30:33.646Z,993.3
2017-09-13T14:31:55.167Z,993.3
2017-09-13T14:32:56.579Z,993.4
2017-09-13T14:34:18.079Z,993.4
2017-09-13T14:35:19.490Z,993.5
2017-09-13T14:36:41.989Z,993.4
2017-09-13T14:37:43.356Z,993.6
2017-09-13T14:39:04.854Z,993.6
2017-09-13T14:40:06.265Z,993.5
2017-09-13T14:41:27.869Z,993.4
2017-09-13T14:42:29.273Z,993.5
2017-09-13T14:43:50.866Z,993.5
2017-09-13T14:44:52.352Z,993.4
2017-09-13T14:46:13.866Z,993.4
2017-09-13T14:47:15.284Z,993.4
2017-09-13T14:48:36.792Z,993.5
2017-09-13T14:49:38.207Z,993.4
2017-09-13T14:50:59.721Z,993.5
2017-09-13T14:52:01.133Z,993.4
2017-09-13T14:53:22.654Z,993.5
2017-09-13T14:54:24.065Z,993.5
2017-09-13T14:55:45.568Z,993.4
2017-09-13T14:56:46.977Z,993.5
2017-09-13T14:58:08.496Z,993.5
2017-09-13T14:59:09.906Z,993.5
2017-09-13T15:00:31.405Z,993.5
2017-09-13T15:01:32.819Z,993.5
2017-09-13T15:02:54.339Z,993.3
2017-09-13T15:03:55.747Z,993.5
2017-09-13T15:05:17.251Z,993.4
2017-09-13T15:06:18.660Z,993.4
2017-09-13T15:07:40.214Z,993.4
2017-09-13T15:08:41.625Z,993.4
2017-09-13T15:10:03.126Z,993.5
2017-09-13T15:11:04.534Z,993.3
2017-09-13T15:12:26.056Z,993.3
2017-09-13T15:13:27.464Z,993.4
2017-09-13T15:14:48.961Z,993.4
2017-09-13T15:15:50.373Z,993.4
2017-09-13T15:17:11.888Z,993.4
2017-09-13T15:18:13.298Z,993.3
2017-09-13T15:19:34.796Z,993.6